sensor_id;sensor_type;location;lat;lon;timestamp;pressure;altitude;pressure_sealevel;temperature;humidity
36254;BME280;22291;52.250;21.228;2024-02-28T00:00:48;100229.22;;;9.92;86.93
36254;BME280;22291;52.250;21.228;2024-02-28T00:03:18;100223.59;;;9.91;86.94
36254;BME280;22291;52.250;21.228;2024-02-28T00:05:45;100226.52;;;9.92;87.38
36254;BME280;22291;52.250;21.228;2024-02-28T00:08:12;100222.95;;;9.94;87.63
36254;BME280;22291;52.250;21.228;2024-02-28T00:10:38;100225.66;;;9.94;87.83
36254;BME280;22291;52.250;21.228;2024-02-28T00:13:04;100221.86;;;9.95;88.03
36254;BME280;22291;52.250;21.228;2024-02-28T00:15:31;100222.12;;;9.96;87.92
36254;BME280;22291;52.250;21.228;2024-02-28T00:17:57;100221.81;;;9.98;88.31
36254;BME280;22291;52.250;21.228;2024-02-28T00:20:23;100226.36;;;10.00;88.25
36254;BME280;22291;52.250;21.228;2024-02-28T00:22:52;100222.53;;;10.01;88.28
36254;BME280;22291;52.250;21.228;2024-02-28T00:25:19;100222.79;;;10.02;88.23
36254;BME280;22291;52.250;21.228;2024-02-28T00:27:45;100223.05;;;10.03;88.33
36254;BME280;22291;52.250;21.228;2024-02-28T00:30:13;100223.53;;;10.05;88.26
36254;BME280;22291;52.250;21.228;2024-02-28T00:32:40;100221.88;;;10.06;88.48
36254;BME280;22291;52.250;21.228;2024-02-28T00:35:08;100223.23;;;10.06;88.48
36254;BME280;22291;52.250;21.228;2024-02-28T00:37:35;100226.16;;;10.07;88.71
36254;BME280;22291;52.250;21.228;2024-02-28T00:40:01;100225.06;;;10.08;88.78
36254;BME280;22291;52.250;21.228;2024-02-28T00:42:27;100231.82;;;10.08;88.63
36254;BME280;22291;52.250;21.228;2024-02-28T00:44:54;100233.73;;;10.08;88.55
36254;BME280;22291;52.250;21.228;2024-02-28T00:47:20;100233.17;;;10.08;88.58
36254;BME280;22291;52.250;21.228;2024-02-28T00:49:47;100229.68;;;10.08;88.73
36254;BME280;22291;52.250;21.228;2024-02-28T00:52:13;100224.50;;;10.09;88.97
36254;BME280;22291;52.250;21.228;2024-02-28T00:54:41;100222.06;;;10.10;89.10
36254;BME280;22291;52.250;21.228;2024-02-28T00:57:07;100229.30;;;10.12;89.04
36254;BME280;22291;52.250;21.228;2024-02-28T00:59:34;100223.89;;;10.12;89.04
36254;BME280;22291;52.250;21.228;2024-02-28T01:02:01;100228.44;;;10.14;88.97
36254;BME280;22291;52.250;21.228;2024-02-28T01:04:29;100227.09;;;10.14;89.00
36254;BME280;22291;52.250;21.228;2024-02-28T01:06:56;100236.80;;;10.15;88.94
36254;BME280;22291;52.250;21.228;2024-02-28T01:09:22;100235.45;;;10.15;88.83
36254;BME280;22291;52.250;21.228;2024-02-28T01:11:49;100234.89;;;10.16;88.50
36254;BME280;22291;52.250;21.228;2024-02-28T01:14:15;100244.09;;;10.15;88.46
36254;BME280;22291;52.250;21.228;2024-02-28T01:16:42;100244.65;;;10.14;88.32
36254;BME280;22291;52.250;21.228;2024-02-28T01:19:08;100248.70;;;10.14;88.27
36254;BME280;22291;52.250;21.228;2024-02-28T01:21:34;100248.22;;;10.12;88.37
36254;BME280;22291;52.250;21.228;2024-02-28T01:24:01;100250.36;;;10.13;88.81
36254;BME280;22291;52.250;21.228;2024-02-28T01:26:27;100254.41;;;10.13;88.94
36254;BME280;22291;52.250;21.228;2024-02-28T01:28:53;100264.13;;;10.14;89.06
36254;BME280;22291;52.250;21.228;2024-02-28T01:31:19;100263.64;;;10.12;89.18
36254;BME280;22291;52.250;21.228;2024-02-28T01:33:46;100260.69;;;10.10;89.34
36254;BME280;22291;52.250;21.228;2024-02-28T01:36:12;100260.76;;;10.08;89.33
36254;BME280;22291;52.250;21.228;2024-02-28T01:38:39;100272.10;;;10.07;89.58
36254;BME280;22291;52.250;21.228;2024-02-28T01:41:07;100267.82;;;10.06;89.75
36254;BME280;22291;52.250;21.228;2024-02-28T01:43:33;100261.59;;;10.06;89.87
36254;BME280;22291;52.250;21.228;2024-02-28T01:46:03;100265.12;;;10.06;90.12
36254;BME280;22291;52.250;21.228;2024-02-28T01:48:31;100259.20;;;10.04;90.02
36254;BME280;22291;52.250;21.228;2024-02-28T01:50:59;100269.22;;;10.04;90.21
36254;BME280;22291;52.250;21.228;2024-02-28T01:53:26;100266.52;;;10.04;90.05
36254;BME280;22291;52.250;21.228;2024-02-28T01:55:54;100271.69;;;10.03;90.34
36254;BME280;22291;52.250;21.228;2024-02-28T01:58:21;100270.64;;;10.01;90.23
36254;BME280;22291;52.250;21.228;2024-02-28T02:00:48;100276.27;;;10.02;90.24
36254;BME280;22291;52.250;21.228;2024-02-28T02:03:16;100270.87;;;10.02;90.16
36254;BME280;22291;52.250;21.228;2024-02-28T02:05:43;100274.69;;;10.01;90.66
36254;BME280;22291;52.250;21.228;2024-02-28T02:08:10;100275.00;;;10.00;90.71
36254;BME280;22291;52.250;21.228;2024-02-28T02:10:37;100285.55;;;9.99;90.89
36254;BME280;22291;52.250;21.228;2024-02-28T02:13:05;100286.14;;;9.96;91.03
36254;BME280;22291;52.250;21.228;2024-02-28T02:15:32;100280.81;;;9.93;91.18
36254;BME280;22291;52.250;21.228;2024-02-28T02:18:01;100283.82;;;9.91;91.50
36254;BME280;22291;52.250;21.228;2024-02-28T02:20:30;100275.53;;;9.88;91.82
36254;BME280;22291;52.250;21.228;2024-02-28T02:23:00;100277.74;;;9.86;91.99
36254;BME280;22291;52.250;21.228;2024-02-28T02:25:26;100282.33;;;9.85;92.28
36254;BME280;22291;52.250;21.228;2024-02-28T02:27:53;100286.38;;;9.85;92.48
36254;BME280;22291;52.250;21.228;2024-02-28T02:30:20;100286.98;;;9.82;92.57
36254;BME280;22291;52.250;21.228;2024-02-28T02:32:46;100295.34;;;9.83;92.81
36254;BME280;22291;52.250;21.228;2024-02-28T02:35:12;100293.24;;;9.80;93.13
36254;BME280;22291;52.250;21.228;2024-02-28T02:37:44;100283.56;;;9.79;93.50
36254;BME280;22291;52.250;21.228;2024-02-28T02:40:13;100279.55;;;9.77;93.70
36254;BME280;22291;52.250;21.228;2024-02-28T02:42:42;100269.86;;;9.76;94.07
36254;BME280;22291;52.250;21.228;2024-02-28T02:45:09;100271.44;;;9.77;94.32
36254;BME280;22291;52.250;21.228;2024-02-28T02:47:36;100251.44;;;9.78;94.15
36254;BME280;22291;52.250;21.228;2024-02-28T02:50:05;100247.13;;;9.77;93.94
36254;BME280;22291;52.250;21.228;2024-02-28T02:52:32;100257.64;;;9.78;93.99
36254;BME280;22291;52.250;21.228;2024-02-28T02:54:59;100257.08;;;9.79;94.49
36254;BME280;22291;52.250;21.228;2024-02-28T02:57:25;100259.24;;;9.79;94.51
36254;BME280;22291;52.250;21.228;2024-02-28T02:59:51;100253.02;;;9.79;94.62
36254;BME280;22291;52.250;21.228;2024-02-28T03:02:18;100244.09;;;9.81;94.50
36254;BME280;22291;52.250;21.228;2024-02-28T03:04:45;100235.98;;;9.81;94.29
36254;BME280;22291;52.250;21.228;2024-02-28T03:07:12;100242.17;;;9.81;94.08
36254;BME280;22291;52.250;21.228;2024-02-28T03:09:39;100235.16;;;9.80;94.41
36254;BME280;22291;52.250;21.228;2024-02-28T03:12:08;100241.38;;;9.81;94.57
36254;BME280;22291;52.250;21.228;2024-02-28T03:14:35;100242.97;;;9.82;94.96
36254;BME280;22291;52.250;21.228;2024-02-28T03:17:03;100238.13;;;9.81;94.81
36254;BME280;22291;52.250;21.228;2024-02-28T03:19:29;100244.09;;;9.81;94.38
36254;BME280;22291;52.250;21.228;2024-02-28T03:21:56;100246.78;;;9.81;94.91
36254;BME280;22291;52.250;21.228;2024-02-28T03:24:23;100242.48;;;9.80;95.06
36254;BME280;22291;52.250;21.228;2024-02-28T03:26:49;100245.73;;;9.79;94.74
36254;BME280;22291;52.250;21.228;2024-02-28T03:29:15;100241.98;;;9.78;94.65
36254;BME280;22291;52.250;21.228;2024-02-28T03:31:41;100241.73;;;9.77;94.47
36254;BME280;22291;52.250;21.228;2024-02-28T03:34:08;100247.70;;;9.76;94.33
36254;BME280;22291;52.250;21.228;2024-02-28T03:36:36;100250.69;;;9.75;94.21
36254;BME280;22291;52.250;21.228;2024-02-28T03:39:02;100263.94;;;9.73;94.04
36254;BME280;22291;52.250;21.228;2024-02-28T03:41:29;100268.29;;;9.72;94.07
36254;BME280;22291;52.250;21.228;2024-02-28T03:43:55;100264.35;;;9.67;94.37
36254;BME280;22291;52.250;21.228;2024-02-28T03:46:22;100262.81;;;9.63;94.43
36254;BME280;22291;52.250;21.228;2024-02-28T03:48:49;100270.72;;;9.60;94.64
36254;BME280;22291;52.250;21.228;2024-02-28T03:51:16;100274.58;;;9.56;95.13
36254;BME280;22291;52.250;21.228;2024-02-28T03:53:43;100280.05;;;9.53;95.52
36254;BME280;22291;52.250;21.228;2024-02-28T03:56:09;100282.00;;;9.50;95.85
36254;BME280;22291;52.250;21.228;2024-02-28T03:58:39;100274.50;;;9.47;96.12
36254;BME280;22291;52.250;21.228;2024-02-28T04:01:05;100272.09;;;9.46;96.28
36254;BME280;22291;52.250;21.228;2024-02-28T04:03:32;100265.64;;;9.44;96.42
36254;BME280;22291;52.250;21.228;2024-02-28T04:05:59;100263.50;;;9.44;96.54
36254;BME280;22291;52.250;21.228;2024-02-28T04:08:25;100263.50;;;9.44;96.47
36254;BME280;22291;52.250;21.228;2024-02-28T04:10:51;100261.66;;;9.42;96.41
36254;BME280;22291;52.250;21.228;2024-02-28T04:13:18;100254.09;;;9.41;96.27
36254;BME280;22291;52.250;21.228;2024-02-28T04:15:44;100245.50;;;9.39;96.03
36254;BME280;22291;52.250;21.228;2024-02-28T04:18:12;100249.06;;;9.37;96.04
36254;BME280;22291;52.250;21.228;2024-02-28T04:20:40;100248.01;;;9.35;96.07
36254;BME280;22291;52.250;21.228;2024-02-28T04:23:07;100243.20;;;9.32;96.03
36254;BME280;22291;52.250;21.228;2024-02-28T04:25:33;100247.03;;;9.31;95.80
36254;BME280;22291;52.250;21.228;2024-02-28T04:28:02;100245.41;;;9.30;95.84
36254;BME280;22291;52.250;21.228;2024-02-28T04:30:29;100250.25;;;9.31;95.72
36254;BME280;22291;52.250;21.228;2024-02-28T04:32:55;100251.91;;;9.29;96.25
36254;BME280;22291;52.250;21.228;2024-02-28T04:35:23;100260.56;;;9.29;95.87
36254;BME280;22291;52.250;21.228;2024-02-28T04:37:49;100266.52;;;9.28;95.73
36254;BME280;22291;52.250;21.228;2024-02-28T04:40:16;100267.05;;;9.28;95.85
36254;BME280;22291;52.250;21.228;2024-02-28T04:42:42;100270.08;;;9.26;96.38
36254;BME280;22291;52.250;21.228;2024-02-28T04:45:10;100274.72;;;9.23;96.19
36254;BME280;22291;52.250;21.228;2024-02-28T04:47:37;100268.56;;;9.20;96.15
36254;BME280;22291;52.250;21.228;2024-02-28T04:50:06;100272.97;;;9.16;96.40
36254;BME280;22291;52.250;21.228;2024-02-28T04:52:35;100274.09;;;9.12;96.55
36254;BME280;22291;52.250;21.228;2024-02-28T04:55:02;100284.95;;;9.10;96.87
36254;BME280;22291;52.250;21.228;2024-02-28T04:57:30;100279.36;;;9.06;97.06
36254;BME280;22291;52.250;21.228;2024-02-28T04:59:57;100274.55;;;9.03;97.15
36254;BME280;22291;52.250;21.228;2024-02-28T05:02:23;100279.69;;;9.02;97.40
36254;BME280;22291;52.250;21.228;2024-02-28T05:04:52;100285.94;;;9.00;97.35
36254;BME280;22291;52.250;21.228;2024-02-28T05:07:18;100290.84;;;8.98;97.48
36254;BME280;22291;52.250;21.228;2024-02-28T05:09:45;100289.84;;;8.94;97.55
36254;BME280;22291;52.250;21.228;2024-02-28T05:12:11;100290.14;;;8.92;97.88
36254;BME280;22291;52.250;21.228;2024-02-28T05:14:38;100295.27;;;8.91;98.06
36254;BME280;22291;52.250;21.228;2024-02-28T05:17:04;100290.16;;;8.90;97.83
36254;BME280;22291;52.250;21.228;2024-02-28T05:19:30;100293.98;;;8.89;97.81
36254;BME280;22291;52.250;21.228;2024-02-28T05:21:57;100288.62;;;8.86;97.48
36254;BME280;22291;52.250;21.228;2024-02-28T05:24:23;100289.47;;;8.84;97.41
36254;BME280;22291;52.250;21.228;2024-02-28T05:26:50;100303.80;;;8.82;97.82
36254;BME280;22291;52.250;21.228;2024-02-28T05:29:17;100303.84;;;8.79;98.24
36254;BME280;22291;52.250;21.228;2024-02-28T05:31:43;100308.73;;;8.77;97.95
36254;BME280;22291;52.250;21.228;2024-02-28T05:34:10;100314.71;;;8.74;98.00
36254;BME280;22291;52.250;21.228;2024-02-28T05:36:37;100310.96;;;8.73;98.62
36254;BME280;22291;52.250;21.228;2024-02-28T05:39:04;100312.31;;;8.73;98.87
36254;BME280;22291;52.250;21.228;2024-02-28T05:41:32;100314.22;;;8.72;99.30
36254;BME280;22291;52.250;21.228;2024-02-28T05:43:58;100315.56;;;8.72;99.36
36254;BME280;22291;52.250;21.228;2024-02-28T05:46:25;100316.06;;;8.74;99.49
36254;BME280;22291;52.250;21.228;2024-02-28T05:48:52;100320.11;;;8.74;99.72
36254;BME280;22291;52.250;21.228;2024-02-28T05:51:19;100321.95;;;8.76;99.86
36254;BME280;22291;52.250;21.228;2024-02-28T05:53:45;100318.73;;;8.77;99.89
36254;BME280;22291;52.250;21.228;2024-02-28T05:56:14;100317.88;;;8.79;99.89
36254;BME280;22291;52.250;21.228;2024-02-28T05:58:45;100318.67;;;8.79;99.96
36254;BME280;22291;52.250;21.228;2024-02-28T06:01:17;100318.11;;;8.80;99.94
36254;BME280;22291;52.250;21.228;2024-02-28T06:03:48;100330.25;;;8.80;100.00
36254;BME280;22291;52.250;21.228;2024-02-28T06:06:15;100333.77;;;8.81;100.00
36254;BME280;22291;52.250;21.228;2024-02-28T06:08:44;100330.52;;;8.81;100.00
36254;BME280;22291;52.250;21.228;2024-02-28T06:11:11;100329.43;;;8.82;100.00
36254;BME280;22291;52.250;21.228;2024-02-28T06:13:40;100330.52;;;8.81;100.00
36254;BME280;22291;52.250;21.228;2024-02-28T06:16:07;100331.86;;;8.81;100.00
36254;BME280;22291;52.250;21.228;2024-02-28T06:18:36;100326.77;;;8.79;100.00
36254;BME280;22291;52.250;21.228;2024-02-28T06:21:03;100333.50;;;8.79;100.00
36254;BME280;22291;52.250;21.228;2024-02-28T06:23:30;100333.21;;;8.81;100.00
36254;BME280;22291;52.250;21.228;2024-02-28T06:25:57;100338.34;;;8.80;100.00
36254;BME280;22291;52.250;21.228;2024-02-28T06:28:23;100348.05;;;8.81;100.00
36254;BME280;22291;52.250;21.228;2024-02-28T06:30:50;100348.31;;;8.82;100.00
36254;BME280;22291;52.250;21.228;2024-02-28T06:33:17;100349.66;;;8.82;100.00
36254;BME280;22291;52.250;21.228;2024-02-28T06:35:46;100354.20;;;8.84;100.00
36254;BME280;22291;52.250;21.228;2024-02-28T06:38:13;100355.55;;;8.84;100.00
36254;BME280;22291;52.250;21.228;2024-02-28T06:40:40;100357.69;;;8.85;100.00
36254;BME280;22291;52.250;21.228;2024-02-28T06:43:07;100358.75;;;8.86;100.00
36254;BME280;22291;52.250;21.228;2024-02-28T06:45:33;100357.11;;;8.88;100.00
36254;BME280;22291;52.250;21.228;2024-02-28T06:48:04;100354.34;;;8.90;100.00
36254;BME280;22291;52.250;21.228;2024-02-28T06:50:32;100353.53;;;8.92;100.00
36254;BME280;22291;52.250;21.228;2024-02-28T06:52:59;100356.73;;;8.94;100.00
36254;BME280;22291;52.250;21.228;2024-02-28T06:55:25;100360.69;;;9.00;100.00
36254;BME280;22291;52.250;21.228;2024-02-28T06:57:53;100366.84;;;9.03;100.00
36254;BME280;22291;52.250;21.228;2024-02-28T07:00:20;100371.33;;;9.07;100.00
36254;BME280;22291;52.250;21.228;2024-02-28T07:02:47;100367.52;;;9.11;100.00
36254;BME280;22291;52.250;21.228;2024-02-28T07:05:13;100376.34;;;9.14;100.00
36254;BME280;22291;52.250;21.228;2024-02-28T07:07:40;100378.42;;;9.20;100.00
36254;BME280;22291;52.250;21.228;2024-02-28T07:10:08;100377.57;;;9.22;100.00
36254;BME280;22291;52.250;21.228;2024-02-28T07:12:35;100375.10;;;9.23;100.00
36254;BME280;22291;52.250;21.228;2024-02-28T07:15:03;100378.27;;;9.27;100.00
36254;BME280;22291;52.250;21.228;2024-02-28T07:17:31;100383.08;;;9.30;100.00
36254;BME280;22291;52.250;21.228;2024-02-28T07:19:58;100385.77;;;9.30;100.00
36254;BME280;22291;52.250;21.228;2024-02-28T07:22:24;100387.39;;;9.31;100.00
36254;BME280;22291;52.250;21.228;2024-02-28T07:24:52;100386.83;;;9.32;100.00
36254;BME280;22291;52.250;21.228;2024-02-28T07:27:18;100388.18;;;9.32;100.00
36254;BME280;22291;52.250;21.228;2024-02-28T07:29:44;100393.19;;;9.39;100.00
36254;BME280;22291;52.250;21.228;2024-02-28T07:32:11;100393.33;;;9.45;100.00
36254;BME280;22291;52.250;21.228;2024-02-28T07:34:37;100389.45;;;9.51;100.00
36254;BME280;22291;52.250;21.228;2024-02-28T07:37:04;100394.45;;;9.58;100.00
36254;BME280;22291;52.250;21.228;2024-02-28T07:39:30;100393.86;;;9.61;100.00
36254;BME280;22291;52.250;21.228;2024-02-28T07:41:56;100392.64;;;9.67;100.00
36254;BME280;22291;52.250;21.228;2024-02-28T07:44:22;100392.02;;;9.72;100.00
36254;BME280;22291;52.250;21.228;2024-02-28T07:46:49;100392.50;;;9.75;100.00
36254;BME280;22291;52.250;21.228;2024-02-28T07:49:17;100394.34;;;9.77;100.00
36254;BME280;22291;52.250;21.228;2024-02-28T07:51:44;100397.02;;;9.79;100.00
36254;BME280;22291;52.250;21.228;2024-02-28T07:54:10;100400.20;;;9.81;100.00
36254;BME280;22291;52.250;21.228;2024-02-28T07:56:37;100399.09;;;9.82;100.00
36254;BME280;22291;52.250;21.228;2024-02-28T07:59:03;100395.30;;;9.83;100.00
36254;BME280;22291;52.250;21.228;2024-02-28T08:01:29;100400.20;;;9.81;100.00
36254;BME280;22291;52.250;21.228;2024-02-28T08:03:57;100399.91;;;9.83;100.00
36254;BME280;22291;52.250;21.228;2024-02-28T08:06:25;100401.20;;;9.85;100.00
36254;BME280;22291;52.250;21.228;2024-02-28T08:08:52;100404.39;;;9.87;100.00
36254;BME280;22291;52.250;21.228;2024-02-28T08:11:18;100414.50;;;9.96;100.00
36254;BME280;22291;52.250;21.228;2024-02-28T08:13:45;100416.04;;;9.99;100.00
36254;BME280;22291;52.250;21.228;2024-02-28T08:16:11;100412.52;;;10.01;100.00
36254;BME280;22291;52.250;21.228;2024-02-28T08:18:37;100415.14;;;10.04;100.00
36254;BME280;22291;52.250;21.228;2024-02-28T08:21:04;100408.58;;;10.07;100.00
36254;BME280;22291;52.250;21.228;2024-02-28T08:23:31;100412.00;;;10.13;100.00
36254;BME280;22291;52.250;21.228;2024-02-28T08:25:58;100409.98;;;10.19;100.00
36254;BME280;22291;52.250;21.228;2024-02-28T08:28:24;100412.27;;;10.25;100.00
36254;BME280;22291;52.250;21.228;2024-02-28T08:30:51;100411.33;;;10.33;100.00
36254;BME280;22291;52.250;21.228;2024-02-28T08:33:18;100415.53;;;10.39;100.00
36254;BME280;22291;52.250;21.228;2024-02-28T08:35:45;100418.30;;;10.48;100.00
36254;BME280;22291;52.250;21.228;2024-02-28T08:38:12;100417.28;;;10.57;100.00
36254;BME280;22291;52.250;21.228;2024-02-28T08:40:39;100426.25;;;10.67;100.00
36254;BME280;22291;52.250;21.228;2024-02-28T08:43:06;100418.06;;;10.69;100.00
36254;BME280;22291;52.250;21.228;2024-02-28T08:45:32;100421.03;;;10.70;100.00
36254;BME280;22291;52.250;21.228;2024-02-28T08:47:58;100415.80;;;10.74;100.00
36254;BME280;22291;52.250;21.228;2024-02-28T08:50:28;100417.03;;;10.79;100.00
36254;BME280;22291;52.250;21.228;2024-02-28T08:52:55;100409.92;;;10.83;100.00
36254;BME280;22291;52.250;21.228;2024-02-28T08:55:22;100415.52;;;10.87;100.00
36254;BME280;22291;52.250;21.228;2024-02-28T08:57:49;100414.91;;;10.90;100.00
36254;BME280;22291;52.250;21.228;2024-02-28T09:00:17;100419.45;;;10.92;100.00
36254;BME280;22291;52.250;21.228;2024-02-28T09:02:44;100410.45;;;10.94;100.00
36254;BME280;22291;52.250;21.228;2024-02-28T09:05:11;100408.02;;;10.95;100.00
36254;BME280;22291;52.250;21.228;2024-02-28T09:07:39;100413.83;;;10.99;100.00
36254;BME280;22291;52.250;21.228;2024-02-28T09:10:07;100412.61;;;11.06;100.00
36254;BME280;22291;52.250;21.228;2024-02-28T09:12:33;100417.51;;;11.15;100.00
36254;BME280;22291;52.250;21.228;2024-02-28T09:15:00;100414.92;;;11.21;100.00
36254;BME280;22291;52.250;21.228;2024-02-28T09:17:27;100419.73;;;11.24;100.00
36254;BME280;22291;52.250;21.228;2024-02-28T09:19:53;100419.03;;;11.30;100.00
36254;BME280;22291;52.250;21.228;2024-02-28T09:22:20;100417.85;;;11.33;100.00
36254;BME280;22291;52.250;21.228;2024-02-28T09:24:47;100425.92;;;11.36;100.00
36254;BME280;22291;52.250;21.228;2024-02-28T09:27:15;100425.40;;;11.45;100.00
36254;BME280;22291;52.250;21.228;2024-02-28T09:29:41;100425.04;;;11.49;100.00
36254;BME280;22291;52.250;21.228;2024-02-28T09:32:07;100428.41;;;11.55;100.00
36254;BME280;22291;52.250;21.228;2024-02-28T09:34:35;100429.63;;;11.60;100.00
36254;BME280;22291;52.250;21.228;2024-02-28T09:37:05;100428.55;;;11.70;100.00
36254;BME280;22291;52.250;21.228;2024-02-28T09:39:31;100432.02;;;11.82;100.00
36254;BME280;22291;52.250;21.228;2024-02-28T09:41:58;100431.11;;;11.95;100.00
36254;BME280;22291;52.250;21.228;2024-02-28T09:44:26;100438.02;;;12.10;100.00
36254;BME280;22291;52.250;21.228;2024-02-28T09:46:53;100431.66;;;12.14;100.00
36254;BME280;22291;52.250;21.228;2024-02-28T09:49:20;100433.75;;;12.18;100.00
36254;BME280;22291;52.250;21.228;2024-02-28T09:51:49;100437.66;;;12.23;100.00
36254;BME280;22291;52.250;21.228;2024-02-28T09:54:17;100433.66;;;12.29;100.00
36254;BME280;22291;52.250;21.228;2024-02-28T09:56:43;100434.40;;;12.41;100.00
36254;BME280;22291;52.250;21.228;2024-02-28T09:59:11;100444.47;;;12.49;100.00
36254;BME280;22291;52.250;21.228;2024-02-28T10:01:44;100444.88;;;12.62;100.00
36254;BME280;22291;52.250;21.228;2024-02-28T10:04:14;100441.11;;;12.87;100.00
36254;BME280;22291;52.250;21.228;2024-02-28T10:06:40;100435.28;;;13.00;100.00
36254;BME280;22291;52.250;21.228;2024-02-28T10:09:07;100441.27;;;13.08;100.00
36254;BME280;22291;52.250;21.228;2024-02-28T10:11:34;100438.62;;;13.05;100.00
36254;BME280;22291;52.250;21.228;2024-02-28T10:14:02;100436.47;;;13.05;100.00
36254;BME280;22291;52.250;21.228;2024-02-28T10:16:30;100437.27;;;13.05;100.00
36254;BME280;22291;52.250;21.228;2024-02-28T10:18:56;100439.42;;;12.97;99.62
36254;BME280;22291;52.250;21.228;2024-02-28T10:21:22;100435.86;;;12.91;99.70
36254;BME280;22291;52.250;21.228;2024-02-28T10:23:50;100441.20;;;12.84;99.83
36254;BME280;22291;52.250;21.228;2024-02-28T10:26:17;100451.09;;;12.80;99.82
36254;BME280;22291;52.250;21.228;2024-02-28T10:28:43;100450.94;;;12.77;99.62
36254;BME280;22291;52.250;21.228;2024-02-28T10:31:12;100452.70;;;12.73;99.75
36254;BME280;22291;52.250;21.228;2024-02-28T10:33:38;100453.66;;;12.68;99.56
36254;BME280;22291;52.250;21.228;2024-02-28T10:36:06;100452.92;;;12.65;100.00
36254;BME280;22291;52.250;21.228;2024-02-28T10:38:34;100452.61;;;12.58;99.21
36254;BME280;22291;52.250;21.228;2024-02-28T10:41:01;100454.69;;;12.52;99.36
36254;BME280;22291;52.250;21.228;2024-02-28T10:43:29;100456.92;;;12.50;99.99
36254;BME280;22291;52.250;21.228;2024-02-28T10:45:58;100456.99;;;12.47;99.77
36254;BME280;22291;52.250;21.228;2024-02-28T10:48:26;100456.83;;;12.44;99.95
36254;BME280;22291;52.250;21.228;2024-02-28T10:50:54;100459.55;;;12.44;100.00
36254;BME280;22291;52.250;21.228;2024-02-28T10:53:23;100455.22;;;12.43;100.00
36254;BME280;22291;52.250;21.228;2024-02-28T10:55:56;100461.21;;;12.42;100.00
36254;BME280;22291;52.250;21.228;2024-02-28T10:58:29;100456.52;;;12.45;100.00
36254;BME280;22291;52.250;21.228;2024-02-28T11:00:57;100454.28;;;12.47;100.00
36254;BME280;22291;52.250;21.228;2024-02-28T11:03:24;100451.25;;;12.49;100.00
36254;BME280;22291;52.250;21.228;2024-02-28T11:05:50;100455.73;;;12.54;100.00
36254;BME280;22291;52.250;21.228;2024-02-28T11:08:23;100447.91;;;12.52;100.00
36254;BME280;22291;52.250;21.228;2024-02-28T11:11:04;100456.68;;;12.58;100.00
36254;BME280;22291;52.250;21.228;2024-02-28T11:13:31;100455.80;;;12.60;100.00
36254;BME280;22291;52.250;21.228;2024-02-28T11:16:09;100455.89;;;12.57;99.46
36254;BME280;22291;52.250;21.228;2024-02-28T11:18:36;100459.23;;;12.54;99.51
36254;BME280;22291;52.250;21.228;2024-02-28T11:21:15;100459.55;;;12.52;99.46
36254;BME280;22291;52.250;21.228;2024-02-28T11:23:46;100459.64;;;12.50;99.29
36254;BME280;22291;52.250;21.228;2024-02-28T11:26:15;100456.99;;;12.47;99.41
36254;BME280;22291;52.250;21.228;2024-02-28T11:28:43;100457.08;;;12.45;99.09
36254;BME280;22291;52.250;21.228;2024-02-28T11:31:09;100459.06;;;12.42;99.15
36254;BME280;22291;52.250;21.228;2024-02-28T11:33:36;100452.34;;;12.39;99.06
36254;BME280;22291;52.250;21.228;2024-02-28T11:36:04;100456.25;;;12.36;99.00
36254;BME280;22291;52.250;21.228;2024-02-28T11:38:36;100461.14;;;12.36;99.46
36254;BME280;22291;52.250;21.228;2024-02-28T11:41:07;100462.24;;;12.35;99.37
36254;BME280;22291;52.250;21.228;2024-02-28T11:43:34;100466.06;;;12.34;99.44
36254;BME280;22291;52.250;21.228;2024-02-28T11:46:08;100467.20;;;12.33;99.37
36254;BME280;22291;52.250;21.228;2024-02-28T11:48:43;100466.38;;;12.32;99.55
36254;BME280;22291;52.250;21.228;2024-02-28T11:51:09;100467.03;;;12.29;99.30
36254;BME280;22291;52.250;21.228;2024-02-28T11:53:35;100470.84;;;12.28;99.56
36254;BME280;22291;52.250;21.228;2024-02-28T11:56:01;100461.83;;;12.30;99.75
36254;BME280;22291;52.250;21.228;2024-02-28T11:58:30;100468.30;;;12.32;99.88
36254;BME280;22291;52.250;21.228;2024-02-28T12:00:56;100465.27;;;12.33;99.77
36254;BME280;22291;52.250;21.228;2024-02-28T12:03:24;100467.20;;;12.33;99.68
36254;BME280;22291;52.250;21.228;2024-02-28T12:05:52;100464.17;;;12.35;99.92
36254;BME280;22291;52.250;21.228;2024-02-28T12:08:21;100458.08;;;12.38;100.00
36254;BME280;22291;52.250;21.228;2024-02-28T12:10:48;100460.11;;;12.43;100.00
36254;BME280;22291;52.250;21.228;2024-02-28T12:13:18;100472.70;;;12.48;100.00
36254;BME280;22291;52.250;21.228;2024-02-28T12:15:46;100466.07;;;12.43;99.44
36254;BME280;22291;52.250;21.228;2024-02-28T12:18:16;100460.73;;;12.40;99.11
36254;BME280;22291;52.250;21.228;2024-02-28T12:20:42;100464.48;;;12.33;98.79
36254;BME280;22291;52.250;21.228;2024-02-28T12:23:10;100457.13;;;12.33;98.82
36254;BME280;22291;52.250;21.228;2024-02-28T12:25:36;100461.93;;;12.37;99.22
36254;BME280;22291;52.250;21.228;2024-02-28T12:28:05;100457.61;;;12.36;98.78
36254;BME280;22291;52.250;21.228;2024-02-28T12:30:41;100460.17;;;12.41;99.04
36254;BME280;22291;52.250;21.228;2024-02-28T12:33:11;100479.11;;;12.52;98.58
36254;BME280;22291;52.250;21.228;2024-02-28T12:35:37;100459.06;;;12.42;98.27
36254;BME280;22291;52.250;21.228;2024-02-28T12:38:04;100461.30;;;12.40;97.78
36254;BME280;22291;52.250;21.228;2024-02-28T12:40:31;100465.06;;;12.41;98.11